sensor_id;sensor_type;location;lat;lon;timestamp;P1;durP1;ratioP1;P2;durP2;ratioP2
12048;SDS011;6085;49.452;8.502;2022-09-09T00:01:43;3.97;;;1.65;;
12048;SDS011;6085;49.452;8.502;2022-09-09T00:05:53;4.82;;;1.42;;
12048;SDS011;6085;49.452;8.502;2022-09-09T00:10:04;2.22;;;1.23;;
12048;SDS011;6085;49.452;8.502;2022-09-09T00:14:18;1.55;;;1.45;;
12048;SDS011;6085;49.452;8.502;2022-09-09T00:18:25;3.03;;;1.80;;
12048;SDS011;6085;49.452;8.502;2022-09-09T00:22:32;2.17;;;1.40;;
12048;SDS011;6085;49.452;8.502;2022-09-09T00:26:35;2.25;;;1.42;;
12048;SDS011;6085;49.452;8.502;2022-09-09T00:30:43;4.05;;;1.70;;
12048;SDS011;6085;49.452;8.502;2022-09-09T00:34:48;4.07;;;1.60;;
12048;SDS011;6085;49.452;8.502;2022-09-09T00:38:52;3.35;;;1.55;;
12048;SDS011;6085;49.452;8.502;2022-09-09T00:43:02;2.45;;;1.45;;
12048;SDS011;6085;49.452;8.502;2022-09-09T00:51:53;5.18;;;1.58;;
12048;SDS011;6085;49.452;8.502;2022-09-09T00:56:01;2.45;;;1.40;;
12048;SDS011;6085;49.452;8.502;2022-09-09T01:00:17;2.47;;;1.27;;
12048;SDS011;6085;49.452;8.502;2022-09-09T01:04:24;2.75;;;1.33;;
12048;SDS011;6085;49.452;8.502;2022-09-09T01:08:41;2.00;;;1.10;;
12048;SDS011;6085;49.452;8.502;2022-09-09T01:12:51;2.30;;;1.42;;
12048;SDS011;6085;49.452;8.502;2022-09-09T01:16:54;3.65;;;1.30;;
12048;SDS011;6085;49.452;8.502;2022-09-09T01:21:04;2.58;;;1.40;;
12048;SDS011;6085;49.452;8.502;2022-09-09T01:30:07;1.40;;;1.30;;
12048;SDS011;6085;49.452;8.502;2022-09-09T01:34:12;3.78;;;1.40;;
12048;SDS011;6085;49.452;8.502;2022-09-09T01:38:14;2.50;;;1.60;;
12048;SDS011;6085;49.452;8.502;2022-09-09T01:42:19;1.83;;;1.30;;
12048;SDS011;6085;49.452;8.502;2022-09-09T01:46:21;2.70;;;1.70;;
12048;SDS011;6085;49.452;8.502;2022-09-09T01:50:23;2.95;;;1.40;;
12048;SDS011;6085;49.452;8.502;2022-09-09T01:54:26;2.05;;;1.60;;
12048;SDS011;6085;49.452;8.502;2022-09-09T01:58:34;5.88;;;1.75;;
12048;SDS011;6085;49.452;8.502;2022-09-09T02:02:48;2.00;;;1.63;;
12048;SDS011;6085;49.452;8.502;2022-09-09T02:06:57;1.88;;;1.20;;
12048;SDS011;6085;49.452;8.502;2022-09-09T02:10:59;2.97;;;1.25;;
12048;SDS011;6085;49.452;8.502;2022-09-09T02:15:11;3.47;;;1.45;;
12048;SDS011;6085;49.452;8.502;2022-09-09T02:19:19;2.67;;;1.20;;
12048;SDS011;6085;49.452;8.502;2022-09-09T02:23:25;4.00;;;1.48;;
12048;SDS011;6085;49.452;8.502;2022-09-09T02:27:29;1.83;;;1.20;;
12048;SDS011;6085;49.452;8.502;2022-09-09T02:31:32;1.45;;;1.27;;
12048;SDS011;6085;49.452;8.502;2022-09-09T02:35:36;2.03;;;1.17;;
12048;SDS011;6085;49.452;8.502;2022-09-09T02:39:40;3.85;;;1.27;;
12048;SDS011;6085;49.452;8.502;2022-09-09T02:43:42;2.58;;;1.38;;
12048;SDS011;6085;49.452;8.502;2022-09-09T02:47:46;3.22;;;1.48;;
12048;SDS011;6085;49.452;8.502;2022-09-09T02:51:56;3.83;;;1.35;;
12048;SDS011;6085;49.452;8.502;2022-09-09T02:56:03;5.85;;;1.58;;
12048;SDS011;6085;49.452;8.502;2022-09-09T03:00:10;1.95;;;1.00;;
12048;SDS011;6085;49.452;8.502;2022-09-09T03:04:14;2.30;;;1.10;;
12048;SDS011;6085;49.452;8.502;2022-09-09T03:08:16;2.42;;;1.02;;
12048;SDS011;6085;49.452;8.502;2022-09-09T03:12:18;1.55;;;1.23;;
12048;SDS011;6085;49.452;8.502;2022-09-09T03:16:20;5.07;;;1.30;;
12048;SDS011;6085;49.452;8.502;2022-09-09T03:20:24;1.58;;;0.85;;
12048;SDS011;6085;49.452;8.502;2022-09-09T03:24:26;2.97;;;1.10;;
12048;SDS011;6085;49.452;8.502;2022-09-09T03:28:28;3.47;;;1.00;;
12048;SDS011;6085;49.452;8.502;2022-09-09T03:32:31;2.25;;;0.93;;
12048;SDS011;6085;49.452;8.502;2022-09-09T03:36:34;3.95;;;1.08;;
12048;SDS011;6085;49.452;8.502;2022-09-09T03:40:36;2.90;;;1.02;;
12048;SDS011;6085;49.452;8.502;2022-09-09T03:44:38;2.10;;;0.85;;
12048;SDS011;6085;49.452;8.502;2022-09-09T03:48:39;2.72;;;1.15;;
12048;SDS011;6085;49.452;8.502;2022-09-09T03:52:43;1.38;;;1.02;;
12048;SDS011;6085;49.452;8.502;2022-09-09T03:56:44;1.25;;;0.80;;
12048;SDS011;6085;49.452;8.502;2022-09-09T04:00:52;1.77;;;0.93;;
12048;SDS011;6085;49.452;8.502;2022-09-09T04:04:54;1.15;;;0.80;;
12048;SDS011;6085;49.452;8.502;2022-09-09T04:08:57;1.17;;;0.70;;
12048;SDS011;6085;49.452;8.502;2022-09-09T04:12:59;1.63;;;0.98;;
12048;SDS011;6085;49.452;8.502;2022-09-09T04:17:01;2.58;;;1.13;;
12048;SDS011;6085;49.452;8.502;2022-09-09T04:21:06;3.20;;;0.90;;
12048;SDS011;6085;49.452;8.502;2022-09-09T04:25:09;1.85;;;0.80;;
12048;SDS011;6085;49.452;8.502;2022-09-09T04:29:11;1.75;;;0.95;;
12048;SDS011;6085;49.452;8.502;2022-09-09T04:33:13;2.83;;;0.95;;
12048;SDS011;6085;49.452;8.502;2022-09-09T04:37:17;2.00;;;0.77;;
12048;SDS011;6085;49.452;8.502;2022-09-09T04:41:20;1.58;;;0.63;;
12048;SDS011;6085;49.452;8.502;2022-09-09T04:45:22;1.85;;;0.88;;
12048;SDS011;6085;49.452;8.502;2022-09-09T04:49:24;0.82;;;0.70;;
12048;SDS011;6085;49.452;8.502;2022-09-09T04:53:26;3.03;;;0.95;;
12048;SDS011;6085;49.452;8.502;2022-09-09T04:57:29;0.82;;;0.82;;
12048;SDS011;6085;49.452;8.502;2022-09-09T05:01:31;1.98;;;0.68;;
12048;SDS011;6085;49.452;8.502;2022-09-09T05:05:34;2.40;;;1.23;;
12048;SDS011;6085;49.452;8.502;2022-09-09T05:09:36;2.03;;;0.90;;
12048;SDS011;6085;49.452;8.502;2022-09-09T05:13:39;1.85;;;0.90;;
12048;SDS011;6085;49.452;8.502;2022-09-09T05:17:41;1.92;;;0.88;;
12048;SDS011;6085;49.452;8.502;2022-09-09T05:21:43;3.35;;;0.90;;
12048;SDS011;6085;49.452;8.502;2022-09-09T05:25:53;2.00;;;0.85;;
12048;SDS011;6085;49.452;8.502;2022-09-09T05:30:00;1.20;;;0.82;;
12048;SDS011;6085;49.452;8.502;2022-09-09T05:34:02;2.50;;;1.02;;
12048;SDS011;6085;49.452;8.502;2022-09-09T05:38:03;1.63;;;0.75;;
12048;SDS011;6085;49.452;8.502;2022-09-09T05:42:05;2.30;;;0.85;;
12048;SDS011;6085;49.452;8.502;2022-09-09T05:46:09;1.70;;;1.00;;
12048;SDS011;6085;49.452;8.502;2022-09-09T05:50:12;1.45;;;0.80;;
12048;SDS011;6085;49.452;8.502;2022-09-09T05:54:14;1.58;;;0.75;;
12048;SDS011;6085;49.452;8.502;2022-09-09T05:58:16;2.28;;;1.00;;
12048;SDS011;6085;49.452;8.502;2022-09-09T06:02:19;1.30;;;0.68;;
12048;SDS011;6085;49.452;8.502;2022-09-09T06:06:22;0.95;;;0.82;;
12048;SDS011;6085;49.452;8.502;2022-09-09T06:10:25;0.95;;;0.73;;
12048;SDS011;6085;49.452;8.502;2022-09-09T06:14:28;0.77;;;0.77;;
12048;SDS011;6085;49.452;8.502;2022-09-09T06:18:31;2.58;;;1.00;;
12048;SDS011;6085;49.452;8.502;2022-09-09T06:22:33;1.75;;;0.73;;
12048;SDS011;6085;49.452;8.502;2022-09-09T06:26:35;2.15;;;1.10;;
12048;SDS011;6085;49.452;8.502;2022-09-09T06:30:40;1.75;;;0.90;;
12048;SDS011;6085;49.452;8.502;2022-09-09T06:34:43;3.42;;;0.80;;
12048;SDS011;6085;49.452;8.502;2022-09-09T06:38:47;2.58;;;1.10;;
12048;SDS011;6085;49.452;8.502;2022-09-09T06:42:49;2.13;;;0.65;;
12048;SDS011;6085;49.452;8.502;2022-09-09T06:46:51;1.20;;;0.70;;
12048;SDS011;6085;49.452;8.502;2022-09-09T06:51:01;1.23;;;0.80;;
12048;SDS011;6085;49.452;8.502;2022-09-09T06:55:04;1.50;;;0.80;;
12048;SDS011;6085;49.452;8.502;2022-09-09T06:59:07;2.05;;;0.77;;
12048;SDS011;6085;49.452;8.502;2022-09-09T07:03:10;2.83;;;0.73;;
12048;SDS011;6085;49.452;8.502;2022-09-09T07:07:13;0.80;;;0.70;;
12048;SDS011;6085;49.452;8.502;2022-09-09T07:11:15;1.38;;;0.80;;
12048;SDS011;6085;49.452;8.502;2022-09-09T07:15:17;2.17;;;0.80;;
12048;SDS011;6085;49.452;8.502;2022-09-09T07:19:19;3.45;;;0.90;;
12048;SDS011;6085;49.452;8.502;2022-09-09T07:23:22;2.63;;;0.95;;
12048;SDS011;6085;49.452;8.502;2022-09-09T07:27:24;1.40;;;0.80;;
12048;SDS011;6085;49.452;8.502;2022-09-09T07:31:27;1.35;;;0.95;;
12048;SDS011;6085;49.452;8.502;2022-09-09T07:35:31;1.42;;;0.73;;
12048;SDS011;6085;49.452;8.502;2022-09-09T07:39:34;1.83;;;0.98;;
12048;SDS011;6085;49.452;8.502;2022-09-09T07:43:36;3.05;;;0.98;;
12048;SDS011;6085;49.452;8.502;2022-09-09T07:47:38;2.40;;;0.90;;
12048;SDS011;6085;49.452;8.502;2022-09-09T07:51:41;0.75;;;0.70;;
12048;SDS011;6085;49.452;8.502;2022-09-09T07:55:45;2.20;;;0.77;;
12048;SDS011;6085;49.452;8.502;2022-09-09T07:59:47;2.50;;;1.10;;
12048;SDS011;6085;49.452;8.502;2022-09-09T08:03:52;2.00;;;1.00;;
12048;SDS011;6085;49.452;8.502;2022-09-09T08:07:55;2.55;;;1.17;;
12048;SDS011;6085;49.452;8.502;2022-09-09T08:11:58;1.95;;;0.88;;
12048;SDS011;6085;49.452;8.502;2022-09-09T08:16:05;3.85;;;0.65;;
12048;SDS011;6085;49.452;8.502;2022-09-09T08:20:09;2.85;;;1.00;;
12048;SDS011;6085;49.452;8.502;2022-09-09T08:24:11;1.75;;;0.98;;
12048;SDS011;6085;49.452;8.502;2022-09-09T08:28:16;3.08;;;0.98;;
12048;SDS011;6085;49.452;8.502;2022-09-09T08:32:18;3.17;;;0.93;;
12048;SDS011;6085;49.452;8.502;2022-09-09T08:36:20;1.27;;;0.90;;
12048;SDS011;6085;49.452;8.502;2022-09-09T08:40:26;1.77;;;0.88;;
12048;SDS011;6085;49.452;8.502;2022-09-09T08:44:37;1.88;;;0.80;;
12048;SDS011;6085;49.452;8.502;2022-09-09T08:48:51;2.58;;;1.05;;
12048;SDS011;6085;49.452;8.502;2022-09-09T08:53:00;2.42;;;1.10;;
12048;SDS011;6085;49.452;8.502;2022-09-09T08:57:07;3.65;;;1.00;;
12048;SDS011;6085;49.452;8.502;2022-09-09T09:01:20;3.40;;;1.05;;
12048;SDS011;6085;49.452;8.502;2022-09-09T09:05:32;1.92;;;0.95;;
12048;SDS011;6085;49.452;8.502;2022-09-09T09:09:44;4.25;;;1.02;;
12048;SDS011;6085;49.452;8.502;2022-09-09T09:13:54;3.97;;;0.90;;
12048;SDS011;6085;49.452;8.502;2022-09-09T09:18:00;4.45;;;1.15;;
12048;SDS011;6085;49.452;8.502;2022-09-09T09:22:04;1.73;;;0.75;;
12048;SDS011;6085;49.452;8.502;2022-09-09T09:26:15;3.08;;;1.00;;
12048;SDS011;6085;49.452;8.502;2022-09-09T09:30:18;3.65;;;0.90;;
12048;SDS011;6085;49.452;8.502;2022-09-09T09:34:23;4.78;;;1.10;;
12048;SDS011;6085;49.452;8.502;2022-09-09T09:38:26;2.55;;;0.98;;
12048;SDS011;6085;49.452;8.502;2022-09-09T09:42:28;1.83;;;1.02;;
12048;SDS011;6085;49.452;8.502;2022-09-09T09:46:30;3.38;;;1.20;;
12048;SDS011;6085;49.452;8.502;2022-09-09T09:50:34;3.58;;;1.15;;
12048;SDS011;6085;49.452;8.502;2022-09-09T09:54:37;3.80;;;1.27;;
12048;SDS011;6085;49.452;8.502;2022-09-09T09:58:48;5.35;;;1.70;;
12048;SDS011;6085;49.452;8.502;2022-09-09T10:02:53;5.10;;;1.60;;
12048;SDS011;6085;49.452;8.502;2022-09-09T10:06:57;2.83;;;1.17;;
12048;SDS011;6085;49.452;8.502;2022-09-09T10:11:02;3.67;;;1.70;;
12048;SDS011;6085;49.452;8.502;2022-09-09T10:15:24;2.47;;;1.50;;
12048;SDS011;6085;49.452;8.502;2022-09-09T10:19:33;3.33;;;1.10;;
12048;SDS011;6085;49.452;8.502;2022-09-09T10:23:44;2.75;;;1.38;;
12048;SDS011;6085;49.452;8.502;2022-09-09T10:32:36;4.47;;;1.33;;
12048;SDS011;6085;49.452;8.502;2022-09-09T10:36:43;2.17;;;1.20;;
12048;SDS011;6085;49.452;8.502;2022-09-09T10:41:09;3.58;;;1.27;;
12048;SDS011;6085;49.452;8.502;2022-09-09T10:45:17;2.35;;;1.02;;
12048;SDS011;6085;49.452;8.502;2022-09-09T10:49:24;3.75;;;1.15;;
12048;SDS011;6085;49.452;8.502;2022-09-09T10:53:42;3.13;;;1.20;;
12048;SDS011;6085;49.452;8.502;2022-09-09T10:57:56;2.38;;;1.08;;
12048;SDS011;6085;49.452;8.502;2022-09-09T11:02:00;2.83;;;1.20;;
12048;SDS011;6085;49.452;8.502;2022-09-09T11:06:09;2.67;;;1.02;;
12048;SDS011;6085;49.452;8.502;2022-09-09T11:10:18;2.45;;;1.02;;
12048;SDS011;6085;49.452;8.502;2022-09-09T11:14:28;1.70;;;0.95;;
12048;SDS011;6085;49.452;8.502;2022-09-09T11:18:35;3.95;;;1.02;;
12048;SDS011;6085;49.452;8.502;2022-09-09T11:22:43;3.10;;;1.17;;
12048;SDS011;6085;49.452;8.502;2022-09-09T11:26:50;1.92;;;1.00;;
12048;SDS011;6085;49.452;8.502;2022-09-09T11:31:00;3.97;;;1.10;;
12048;SDS011;6085;49.452;8.502;2022-09-09T11:35:20;2.80;;;0.95;;
12048;SDS011;6085;49.452;8.502;2022-09-09T11:39:38;1.55;;;1.00;;
12048;SDS011;6085;49.452;8.502;2022-09-09T11:43:52;4.25;;;1.17;;
12048;SDS011;6085;49.452;8.502;2022-09-09T11:47:56;4.55;;;0.93;;
12048;SDS011;6085;49.452;8.502;2022-09-09T11:51:59;2.75;;;1.10;;
12048;SDS011;6085;49.452;8.502;2022-09-09T11:56:12;2.90;;;0.90;;
12048;SDS011;6085;49.452;8.502;2022-09-09T12:00:28;2.83;;;0.80;;
12048;SDS011;6085;49.452;8.502;2022-09-09T12:04:36;3.63;;;0.95;;
12048;SDS011;6085;49.452;8.502;2022-09-09T12:08:41;2.15;;;1.00;;
12048;SDS011;6085;49.452;8.502;2022-09-09T12:12:45;2.70;;;0.90;;
12048;SDS011;6085;49.452;8.502;2022-09-09T12:16:47;2.33;;;1.02;;
12048;SDS011;6085;49.452;8.502;2022-09-09T12:20:54;2.88;;;0.95;;
12048;SDS011;6085;49.452;8.502;2022-09-09T12:25:05;2.58;;;1.02;;
12048;SDS011;6085;49.452;8.502;2022-09-09T12:29:21;1.02;;;0.35;;
12048;SDS011;6085;49.452;8.502;2022-09-09T12:33:33;1.15;;;0.40;;
12048;SDS011;6085;49.452;8.502;2022-09-09T12:37:38;1.13;;;0.35;;
12048;SDS011;6085;49.452;8.502;2022-09-09T12:41:50;1.88;;;0.50;;
12048;SDS011;6085;49.452;8.502;2022-09-09T12:45:53;2.08;;;0.90;;
12048;SDS011;6085;49.452;8.502;2022-09-09T12:49:58;2.05;;;0.60;;
12048;SDS011;6085;49.452;8.502;2022-09-09T12:54:02;1.13;;;0.70;;
12048;SDS011;6085;49.452;8.502;2022-09-09T12:58:05;2.50;;;0.60;;
12048;SDS011;6085;49.452;8.502;2022-09-09T13:02:17;3.00;;;0.57;;
12048;SDS011;6085;49.452;8.502;2022-09-09T13:06:22;1.33;;;0.70;;
12048;SDS011;6085;49.452;8.502;2022-09-09T13:10:27;2.88;;;0.82;;
12048;SDS011;6085;49.452;8.502;2022-09-09T13:14:32;2.40;;;0.73;;
12048;SDS011;6085;49.452;8.502;2022-09-09T13:18:39;2.38;;;0.88;;
12048;SDS011;6085;49.452;8.502;2022-09-09T13:22:42;1.88;;;0.90;;
12048;SDS011;6085;49.452;8.502;2022-09-09T13:26:53;1.30;;;0.75;;
12048;SDS011;6085;49.452;8.502;2022-09-09T13:30:57;3.63;;;1.40;;
12048;SDS011;6085;49.452;8.502;2022-09-09T13:35:01;2.17;;;1.00;;
12048;SDS011;6085;49.452;8.502;2022-09-09T13:39:03;2.38;;;0.93;;
12048;SDS011;6085;49.452;8.502;2022-09-09T13:43:10;1.88;;;0.47;;
12048;SDS011;6085;49.452;8.502;2022-09-09T13:47:26;1.40;;;0.80;;
12048;SDS011;6085;49.452;8.502;2022-09-09T13:51:35;1.33;;;0.50;;
12048;SDS011;6085;49.452;8.502;2022-09-09T13:55:38;0.35;;;0.35;;
12048;SDS011;6085;49.452;8.502;2022-09-09T13:59:42;1.02;;;0.50;;
12048;SDS011;6085;49.452;8.502;2022-09-09T14:03:43;0.57;;;0.45;;
12048;SDS011;6085;49.452;8.502;2022-09-09T14:07:45;0.35;;;0.35;;
12048;SDS011;6085;49.452;8.502;2022-09-09T14:11:47;1.13;;;0.50;;
12048;SDS011;6085;49.452;8.502;2022-09-09T14:15:51;1.00;;;0.30;;
12048;SDS011;6085;49.452;8.502;2022-09-09T14:19:53;2.53;;;0.50;;
12048;SDS011;6085;49.452;8.502;2022-09-09T14:23:56;0.70;;;0.45;;
12048;SDS011;6085;49.452;8.502;2022-09-09T14:27:58;1.65;;;0.47;;
12048;SDS011;6085;49.452;8.502;2022-09-09T14:32:01;1.60;;;0.70;;
12048;SDS011;6085;49.452;8.502;2022-09-09T14:36:04;1.20;;;0.80;;
12048;SDS011;6085;49.452;8.502;2022-09-09T14:40:06;1.40;;;0.70;;
12048;SDS011;6085;49.452;8.502;2022-09-09T14:44:08;0.57;;;0.57;;
12048;SDS011;6085;49.452;8.502;2022-09-09T14:48:11;0.90;;;0.75;;
12048;SDS011;6085;49.452;8.502;2022-09-09T14:52:14;1.95;;;0.50;;
12048;SDS011;6085;49.452;8.502;2022-09-09T14:56:17;2.50;;;0.52;;
12048;SDS011;6085;49.452;8.502;2022-09-09T15:00:21;1.63;;;0.60;;
12048;SDS011;6085;49.452;8.502;2022-09-09T15:04:24;2.72;;;0.73;;
12048;SDS011;6085;49.452;8.502;2022-09-09T15:08:26;1.38;;;1.02;;
12048;SDS011;6085;49.452;8.502;2022-09-09T15:12:28;1.58;;;0.73;;
12048;SDS011;6085;49.452;8.502;2022-09-09T15:16:30;2.25;;;0.80;;
12048;SDS011;6085;49.452;8.502;2022-09-09T15:20:34;2.17;;;0.93;;
12048;SDS011;6085;49.452;8.502;2022-09-09T15:24:37;1.27;;;0.85;;
12048;SDS011;6085;49.452;8.502;2022-09-09T15:28:39;0.80;;;0.70;;
12048;SDS011;6085;49.452;8.502;2022-09-09T15:32:43;2.55;;;1.10;;
12048;SDS011;6085;49.452;8.502;2022-09-09T15:36:47;1.48;;;0.93;;
12048;SDS011;6085;49.452;8.502;2022-09-09T15:40:52;2.33;;;1.20;;
12048;SDS011;6085;49.452;8.502;2022-09-09T15:44:55;1.63;;;0.85;;
12048;SDS011;6085;49.452;8.502;2022-09-09T15:48:58;3.10;;;1.30;;
12048;SDS011;6085;49.452;8.502;2022-09-09T15:53:05;0.80;;;0.73;;
12048;SDS011;6085;49.452;8.502;2022-09-09T15:57:07;2.38;;;1.35;;
12048;SDS011;6085;49.452;8.502;2022-09-09T16:01:12;1.08;;;0.80;;
12048;SDS011;6085;49.452;8.502;2022-09-09T16:05:15;1.85;;;1.08;;
12048;SDS011;6085;49.452;8.502;2022-09-09T16:09:19;2.13;;;0.90;;
12048;SDS011;6085;49.452;8.502;2022-09-09T16:13:20;2.33;;;0.80;;
12048;SDS011;6085;49.452;8.502;2022-09-09T16:17:22;1.23;;;0.80;;
12048;SDS011;6085;49.452;8.502;2022-09-09T16:21:25;0.70;;;0.60;;
12048;SDS011;6085;49.452;8.502;2022-09-09T16:25:30;2.08;;;0.50;;
12048;SDS011;6085;49.452;8.502;2022-09-09T16:29:32;1.42;;;0.75;;
12048;SDS011;6085;49.452;8.502;2022-09-09T16:33:34;0.75;;;0.50;;
12048;SDS011;6085;49.452;8.502;2022-09-09T16:37:36;0.85;;;0.60;;
12048;SDS011;6085;49.452;8.502;2022-09-09T16:41:39;1.75;;;0.50;;
12048;SDS011;6085;49.452;8.502;2022-09-09T16:45:43;0.68;;;0.50;;
12048;SDS011;6085;49.452;8.502;2022-09-09T16:49:45;1.45;;;0.50;;
12048;SDS011;6085;49.452;8.502;2022-09-09T16:53:47;1.02;;;0.43;;
12048;SDS011;6085;49.452;8.502;2022-09-09T16:57:50;0.60;;;0.57;;
12048;SDS011;6085;49.452;8.502;2022-09-09T17:01:53;1.25;;;0.70;;
12048;SDS011;6085;49.452;8.502;2022-09-09T17:05:55;0.95;;;0.73;;
12048;SDS011;6085;49.452;8.502;2022-09-09T17:09:58;1.70;;;0.90;;
12048;SDS011;6085;49.452;8.502;2022-09-09T17:14:01;1.15;;;0.70;;
12048;SDS011;6085;49.452;8.502;2022-09-09T17:18:04;0.75;;;0.55;;
12048;SDS011;6085;49.452;8.502;2022-09-09T17:22:06;1.25;;;0.82;;
12048;SDS011;6085;49.452;8.502;2022-09-09T17:26:09;1.30;;;1.20;;
12048;SDS011;6085;49.452;8.502;2022-09-09T17:30:13;1.60;;;1.10;;
12048;SDS011;6085;49.452;8.502;2022-09-09T17:34:16;1.75;;;1.15;;
12048;SDS011;6085;49.452;8.502;2022-09-09T17:38:18;2.15;;;1.05;;
12048;SDS011;6085;49.452;8.502;2022-09-09T17:42:20;1.25;;;1.20;;
12048;SDS011;6085;49.452;8.502;2022-09-09T17:46:24;1.75;;;1.02;;
12048;SDS011;6085;49.452;8.502;2022-09-09T17:50:27;2.08;;;0.80;;
12048;SDS011;6085;49.452;8.502;2022-09-09T17:54:29;0.85;;;0.80;;
12048;SDS011;6085;49.452;8.502;2022-09-09T17:58:32;1.15;;;0.73;;
12048;SDS011;6085;49.452;8.502;2022-09-09T18:02:36;2.08;;;1.08;;
12048;SDS011;6085;49.452;8.502;2022-09-09T18:06:39;1.65;;;0.57;;
12048;SDS011;6085;49.452;8.502;2022-09-09T18:10:43;2.55;;;0.88;;
12048;SDS011;6085;49.452;8.502;2022-09-09T18:14:54;1.20;;;0.85;;
12048;SDS011;6085;49.452;8.502;2022-09-09T18:18:57;0.93;;;0.80;;
12048;SDS011;6085;49.452;8.502;2022-09-09T18:22:59;1.15;;;0.82;;
12048;SDS011;6085;49.452;8.502;2022-09-09T18:27:01;1.35;;;1.10;;
12048;SDS011;6085;49.452;8.502;2022-09-09T18:31:04;2.13;;;0.90;;
12048;SDS011;6085;49.452;8.502;2022-09-09T18:35:09;2.80;;;0.98;;
12048;SDS011;6085;49.452;8.502;2022-09-09T18:39:11;0.88;;;0.80;;
12048;SDS011;6085;49.452;8.502;2022-09-09T18:43:15;2.13;;;0.80;;
12048;SDS011;6085;49.452;8.502;2022-09-09T18:47:17;1.17;;;1.00;;
12048;SDS011;6085;49.452;8.502;2022-09-09T18:51:22;1.00;;;0.90;;
12048;SDS011;6085;49.452;8.502;2022-09-09T18:55:25;1.23;;;1.05;;
12048;SDS011;6085;49.452;8.502;2022-09-09T18:59:29;2.30;;;1.20;;
12048;SDS011;6085;49.452;8.502;2022-09-09T19:03:31;1.48;;;1.10;;
12048;SDS011;6085;49.452;8.502;2022-09-09T19:07:36;1.85;;;0.93;;
12048;SDS011;6085;49.452;8.502;2022-09-09T19:11:40;1.50;;;0.90;;
12048;SDS011;6085;49.452;8.502;2022-09-09T19:15:42;3.65;;;1.00;;
12048;SDS011;6085;49.452;8.502;2022-09-09T19:19:44;1.60;;;0.95;;
12048;SDS011;6085;49.452;8.502;2022-09-09T19:23:48;1.75;;;1.00;;
12048;SDS011;6085;49.452;8.502;2022-09-09T19:27:55;1.60;;;1.00;;
12048;SDS011;6085;49.452;8.502;2022-09-09T19:31:57;1.05;;;0.80;;
12048;SDS011;6085;49.452;8.502;2022-09-09T19:36:03;2.53;;;1.10;;
12048;SDS011;6085;49.452;8.502;2022-09-09T19:40:08;1.00;;;0.90;;
12048;SDS011;6085;49.452;8.502;2022-09-09T19:44:11;1.05;;;0.70;;
12048;SDS011;6085;49.452;8.502;2022-09-09T19:48:14;1.65;;;1.13;;
12048;SDS011;6085;49.452;8.502;2022-09-09T19:52:17;4.53;;;1.17;;
12048;SDS011;6085;49.452;8.502;2022-09-09T19:56:20;1.67;;;1.20;;
12048;SDS011;6085;49.452;8.502;2022-09-09T20:00:24;1.25;;;0.95;;
12048;SDS011;6085;49.452;8.502;2022-09-09T20:04:26;2.05;;;1.50;;
12048;SDS011;6085;49.452;8.502;2022-09-09T20:08:28;2.45;;;1.10;;
12048;SDS011;6085;49.452;8.502;2022-09-09T20:12:31;1.50;;;1.15;;
12048;SDS011;6085;49.452;8.502;2022-09-09T20:16:33;2.00;;;1.80;;
12048;SDS011;6085;49.452;8.502;2022-09-09T20:20:38;1.48;;;1.30;;
12048;SDS011;6085;49.452;8.502;2022-09-09T20:24:41;2.47;;;1.30;;
12048;SDS011;6085;49.452;8.502;2022-09-09T20:28:44;1.30;;;1.00;;
12048;SDS011;6085;49.452;8.502;2022-09-09T20:32:46;2.10;;;1.20;;
12048;SDS011;6085;49.452;8.502;2022-09-09T20:36:48;1.20;;;1.10;;
12048;SDS011;6085;49.452;8.502;2022-09-09T20:40:50;4.40;;;1.50;;
12048;SDS011;6085;49.452;8.502;2022-09-09T20:44:53;2.95;;;2.40;;
12048;SDS011;6085;49.452;8.502;2022-09-09T20:48:55;3.42;;;2.83;;
12048;SDS011;6085;49.452;8.502;2022-09-09T20:52:58;4.88;;;2.92;;
12048;SDS011;6085;49.452;8.502;2022-09-09T20:57:00;2.67;;;2.47;;
12048;SDS011;6085;49.452;8.502;2022-09-09T21:01:03;3.70;;;2.60;;
12048;SDS011;6085;49.452;8.502;2022-09-09T21:05:07;4.93;;;2.88;;
12048;SDS011;6085;49.452;8.502;2022-09-09T21:09:13;4.25;;;2.88;;
12048;SDS011;6085;49.452;8.502;2022-09-09T21:13:14;5.43;;;4.32;;
12048;SDS011;6085;49.452;8.502;2022-09-09T21:17:18;5.35;;;4.13;;
12048;SDS011;6085;49.452;8.502;2022-09-09T21:21:20;8.35;;;5.13;;
12048;SDS011;6085;49.452;8.502;2022-09-09T21:25:22;6.82;;;5.07;;
12048;SDS011;6085;49.452;8.502;2022-09-09T21:29:28;3.33;;;1.90;;
12048;SDS011;6085;49.452;8.502;2022-09-09T21:33:32;2.13;;;1.42;;
12048;SDS011;6085;49.452;8.502;2022-09-09T21:37:34;3.05;;;1.45;;
12048;SDS011;6085;49.452;8.502;2022-09-09T21:41:36;3.78;;;1.50;;
12048;SDS011;6085;49.452;8.502;2022-09-09T21:45:38;3.50;;;1.40;;
12048;SDS011;6085;49.452;8.502;2022-09-09T21:49:42;3.28;;;1.63;;
12048;SDS011;6085;49.452;8.502;2022-09-09T21:53:44;3.33;;;1.40;;
12048;SDS011;6085;49.452;8.502;2022-09-09T21:57:46;1.92;;;1.55;;
12048;SDS011;6085;49.452;8.502;2022-09-09T22:01:49;5.45;;;2.03;;
12048;SDS011;6085;49.452;8.502;2022-09-09T22:05:52;3.58;;;1.50;;
12048;SDS011;6085;49.452;8.502;2022-09-09T22:09:54;2.70;;;1.50;;
12048;SDS011;6085;49.452;8.502;2022-09-09T22:13:56;4.07;;;1.40;;
12048;SDS011;6085;49.452;8.502;2022-09-09T22:17:58;3.22;;;1.42;;
12048;SDS011;6085;49.452;8.502;2022-09-09T22:22:03;2.05;;;1.30;;
12048;SDS011;6085;49.452;8.502;2022-09-09T22:26:05;3.38;;;1.40;;
12048;SDS011;6085;49.452;8.502;2022-09-09T22:30:08;2.20;;;1.38;;
12048;SDS011;6085;49.452;8.502;2022-09-09T22:34:11;2.50;;;1.40;;
12048;SDS011;6085;49.452;8.502;2022-09-09T22:38:14;1.50;;;1.38;;
12048;SDS011;6085;49.452;8.502;2022-09-09T22:42:16;1.90;;;1.20;;
12048;SDS011;6085;49.452;8.502;2022-09-09T22:46:18;2.33;;;1.33;;
12048;SDS011;6085;49.452;8.502;2022-09-09T22:50:21;1.38;;;1.10;;
12048;SDS011;6085;49.452;8.502;2022-09-09T22:54:24;4.90;;;1.70;;
12048;SDS011;6085;49.452;8.502;2022-09-09T22:58:26;1.70;;;1.60;;
12048;SDS011;6085;49.452;8.502;2022-09-09T23:02:30;3.17;;;1.60;;
12048;SDS011;6085;49.452;8.502;2022-09-09T23:06:32;3.15;;;1.50;;
12048;SDS011;6085;49.452;8.502;2022-09-09T23:10:38;2.55;;;1.90;;
12048;SDS011;6085;49.452;8.502;2022-09-09T23:14:42;2.55;;;2.10;;
12048;SDS011;6085;49.452;8.502;2022-09-09T23:18:44;5.25;;;2.17;;
12048;SDS011;6085;49.452;8.502;2022-09-09T23:22:47;4.30;;;2.20;;
12048;SDS011;6085;49.452;8.502;2022-09-09T23:26:50;4.32;;;2.20;;
12048;SDS011;6085;49.452;8.502;2022-09-09T23:30:52;4.07;;;2.00;;
12048;SDS011;6085;49.452;8.502;2022-09-09T23:34:54;2.50;;;1.83;;
12048;SDS011;6085;49.452;8.502;2022-09-09T23:38:57;2.53;;;1.50;;
12048;SDS011;6085;49.452;8.502;2022-09-09T23:43:04;2.75;;;1.60;;
12048;SDS011;6085;49.452;8.502;2022-09-09T23:47:06;2.53;;;1.40;;
12048;SDS011;6085;49.452;8.502;2022-09-09T23:51:09;2.45;;;1.40;;
12048;SDS011;6085;49.452;8.502;2022-09-09T23:55:16;1.95;;;1.30;;
12048;SDS011;6085;49.452;8.502;2022-09-09T23:59:19;1.90;;;1.13;;
